Skip Navigation LinksHome page > Weather > Current weather Skip Navigation Links

Current Weather

Heathrow, London

For information only: do not use for flight planning or navigation.
Latest weather
Observation time Wednesday, February 22, 2017 7:50 AM GMT
Local time Wednesday, February 22, 2017 8:21 AM GMT
Flight conditions Marginal Visual Meteorological Conditions
Winds
Wind direction West-Southwest (240°)
Wind speed 15 mph
Visibility 3.7 mi.
Present weather RADZ
Sky condition
Ceiling 1,100 ft. broken clouds
Cloud layer few clouds 800 ft.
Cloud layer broken clouds 1,100 ft.
Temperature 52°F
Dewpoint 50°F
Altimeter 29.80 in.Hg
Derived measurements
Relative humidity 94%
Density altitude -159 ft.
Remarks
Corrected report.
No significant changes expected in the next two hours.
METAR COR EGLL 220750Z 24013KT 6000 -RADZ FEW008 BKN011 11/10 Q1009 NOSIG

Settings

Location code

InnerDrive.Weather 4.0.6144.1 Release CLR 4.0.30319.34209
Copyright ©2015 Inner Drive Technology. All rights reserved. Portions Copyright ©1986-2015 David Braverman.

Find weather

Site navigation


Skip Navigation Links

Place info

Page info

PayPal - The safer, easier way to pay online!

Return home.

Copyright ©2017 Inner Drive Technology. Purveyors of fine, hand-crafted computer software. Page printed 2017-02-22T08:21:28 UTC.